Time;durP1;ratioP1;P1;durP2;ratioP2;P2;SDS_P1;SDS_P2;PMS_P1;PMS_P2;Temp;Humidity;BMP_temperature;BMP_pressure;BME280_temperature;BME280_humidity;BME280_pressure;Samples;Min_cycle;Max_cycle;Signal;HPM_P1;HPM_P2
2023/03/30 00:01:30;;;;;;;1.73;1.63;;;;;;;10.63;100.00;96236.22;5014541;28;101841;-61
2023/03/30 00:04:11;;;;;;;2.83;1.60;;;;;;;10.61;100.00;96234.88;5010740;28;105170;-61
2023/03/30 00:06:41;;;;;;;2.20;2.00;;;;;;;10.58;100.00;96232.75;5012686;28;101635;-61
2023/03/30 00:09:08;;;;;;;4.00;2.03;;;;;;;10.62;100.00;96228.50;5016949;28;103975;-61
2023/03/30 00:11:36;;;;;;;3.03;1.73;;;;;;;10.61;100.00;96232.22;5024636;28;105637;-61
2023/03/30 00:14:16;;;;;;;3.73;2.07;;;;;;;10.59;100.00;96237.00;5030892;28;101861;-61
2023/03/30 00:16:44;;;;;;;1.73;1.63;;;;;;;10.60;100.00;96230.63;5028297;28;103649;-61
2023/03/30 00:19:11;;;;;;;4.30;1.80;;;;;;;10.64;100.00;96226.41;5022077;28;103721;-61
2023/03/30 00:21:38;;;;;;;3.37;1.80;;;;;;;10.69;100.00;96216.59;5014279;28;102141;-61
2023/03/30 00:24:21;;;;;;;3.37;1.80;;;;;;;10.73;100.00;96212.38;5010903;28;104191;-61
2023/03/30 00:26:48;;;;;;;2.83;1.70;;;;;;;10.78;100.00;96209.75;5010871;28;101802;-61
2023/03/30 00:29:15;;;;;;;2.63;1.90;;;;;;;10.81;100.00;96203.94;5020266;28;105499;-61
2023/03/30 00:31:44;;;;;;;3.50;2.00;;;;;;;10.79;100.00;96197.25;5029955;28;105148;-61
2023/03/30 00:34:44;;;;;;;3.37;1.90;;;;;;;10.82;100.00;96202.06;5029729;28;102466;-61
2023/03/30 00:37:10;;;;;;;3.90;1.90;;;;;;;10.85;100.00;96202.34;5030656;28;105190;-61
2023/03/30 00:39:37;;;;;;;2.20;1.90;;;;;;;10.85;100.00;96199.69;5028351;28;105444;-61
2023/03/30 00:42:04;;;;;;;2.93;1.97;;;;;;;10.85;100.00;96193.56;5030525;28;101890;-61
2023/03/30 00:48:26;;;;;;;2.13;1.70;;;;;;;10.99;100.00;96205.34;5012909;28;101849;-61
2023/03/30 00:50:55;;;;;;;2.73;1.50;;;;;;;10.98;100.00;96190.44;5030313;28;105674;-61
2023/03/30 00:53:49;;;;;;;2.50;1.87;;;;;;;10.92;100.00;96180.84;5029390;28;103797;-61
2023/03/30 00:56:21;;;;;;;6.33;2.17;;;;;;;10.90;100.00;96180.31;5028645;28;101941;-61
2023/03/30 00:58:48;;;;;;;3.43;1.80;;;;;;;10.89;100.00;96173.34;5028754;28;104849;-61
2023/03/30 01:01:24;;;;;;;5.70;2.13;;;;;;;10.90;100.00;96162.47;5029148;28;103910;-61
2023/03/30 01:03:53;;;;;;;3.03;1.70;;;;;;;10.90;100.00;96159.03;5030275;28;101817;-61
2023/03/30 01:06:23;;;;;;;2.43;1.70;;;;;;;10.92;100.00;96157.72;5027820;28;105069;-61
2023/03/30 01:08:50;;;;;;;3.47;1.93;;;;;;;10.93;100.00;96161.16;5024894;28;104071;-61
2023/03/30 01:11:17;;;;;;;4.63;1.83;;;;;;;10.89;100.00;96157.41;5029892;28;104066;-61
2023/03/30 01:13:47;;;;;;;2.70;1.80;;;;;;;10.83;100.00;96153.13;5028956;27;105516;-61
2023/03/30 01:16:24;;;;;;;5.47;1.90;;;;;;;10.80;100.00;96137.69;5026367;28;101922;-61
2023/03/30 01:19:00;;;;;;;5.23;2.10;;;;;;;10.88;100.00;96139.84;5021757;28;105385;-61
2023/03/30 01:21:58;;;;;;;5.73;1.63;;;;;;;10.86;100.00;96139.31;5028728;28;105938;-61
2023/03/30 01:24:48;;;;;;;2.40;1.60;;;;;;;10.85;100.00;96129.72;5029464;28;102147;-61
2023/03/30 01:27:44;;;;;;;3.30;1.73;;;;;;;10.91;100.00;96140.13;5029953;28;104813;-61
2023/03/30 01:30:35;;;;;;;5.17;1.80;;;;;;;10.94;100.00;96134.31;4989039;28;105501;-61
2023/03/30 01:33:42;;;;;;;3.33;1.80;;;;;;;10.96;100.00;96120.75;4997067;28;101946;-61
2023/03/30 01:37:00;;;;;;;2.30;1.90;;;;;;;10.99;100.00;96117.56;5001060;28;105925;-61
2023/03/30 01:39:43;;;;;;;5.43;1.70;;;;;;;11.05;100.00;96121.84;5026638;28;101778;-61
2023/03/30 01:42:20;;;;;;;3.27;1.83;;;;;;;11.13;100.00;96110.72;5029627;28;104279;-61
2023/03/30 01:45:13;;;;;;;3.27;2.47;;;;;;;11.25;100.00;96119.28;5027419;28;105657;-61
2023/03/30 01:47:49;;;;;;;4.57;1.70;;;;;;;11.19;100.00;96101.69;5025674;28;101928;-61
2023/03/30 01:50:24;;;;;;;2.93;1.60;;;;;;;11.20;100.00;96108.59;5009596;28;105176;-61
2023/03/30 01:52:55;;;;;;;2.70;1.60;;;;;;;11.20;100.00;96106.75;5008831;28;105040;-61
2023/03/30 01:55:29;;;;;;;5.50;1.90;;;;;;;11.19;100.00;96109.66;5010901;28;101660;-61
2023/03/30 01:58:02;;;;;;;4.30;1.80;;;;;;;11.31;100.00;96102.25;5016939;28;104900;-61
2023/03/30 02:00:30;;;;;;;3.63;1.60;;;;;;;11.29;100.00;96101.72;5063562;27;101823;-61
2023/03/30 02:06:48;;;;;;;5.23;1.70;;;;;;;11.34;100.00;96107.06;5006966;28;102098;-61
2023/03/30 02:09:19;;;;;;;4.00;1.50;;;;;;;11.39;100.00;96099.88;5023494;28;103187;-61
2023/03/30 02:11:52;;;;;;;3.50;1.40;;;;;;;11.51;100.00;96105.75;5019538;28;104244;-61
2023/03/30 02:15:06;;;;;;;2.60;1.60;;;;;;;11.50;100.00;96100.72;5008421;28;105385;-61
2023/03/30 02:17:34;;;;;;;3.77;1.50;;;;;;;11.57;100.00;96095.94;5015134;28;101948;-61
2023/03/30 02:20:05;;;;;;;6.67;1.80;;;;;;;11.59;100.00;96115.13;5028717;28;102516;-61
2023/03/30 02:22:32;;;;;;;4.07;1.63;;;;;;;11.65;100.00;96098.09;5015181;27;101821;-61
2023/03/30 02:25:48;;;;;;;2.93;1.90;;;;;;;11.68;100.00;96108.25;5009132;28;104921;-61
2023/03/30 02:28:18;;;;;;;11.43;1.80;;;;;;;11.78;100.00;96121.59;5024726;28;105343;-61
2023/03/30 02:30:47;;;;;;;4.53;1.80;;;;;;;11.81;100.00;96105.88;5031863;28;101857;-61
2023/03/30 02:37:20;;;;;;;5.47;2.10;;;;;;;11.80;100.00;96112.25;5027960;28;102160;-61
2023/03/30 02:39:59;;;;;;;3.50;1.70;;;;;;;11.81;100.00;96115.72;5012244;28;101853;-61
2023/03/30 02:42:58;;;;;;;3.43;1.37;;;;;;;11.91;100.00;96113.06;5012317;28;105588;-61
2023/03/30 02:45:40;;;;;;;3.83;1.53;;;;;;;11.89;100.00;96113.31;5014948;28;105149;-61
2023/03/30 02:48:18;;;;;;;5.50;1.60;;;;;;;11.87;100.00;96118.13;5023476;28;105350;-61
2023/03/30 02:50:50;;;;;;;6.20;1.83;;;;;;;11.88;100.00;96130.38;5031465;28;105130;-61
2023/03/30 02:54:22;;;;;;;3.53;1.67;;;;;;;11.92;100.00;96142.13;5031459;28;102456;-61
2023/03/30 02:57:37;;;;;;;5.17;1.60;;;;;;;11.89;100.00;96155.16;4997534;28;103369;-61
2023/03/30 03:00:43;;;;;;;4.83;1.60;;;;;;;11.82;100.00;96162.63;5011420;28;104230;-61
2023/03/30 03:03:20;;;;;;;4.17;1.60;;;;;;;11.68;100.00;96162.31;5012160;28;101881;-61
2023/03/30 03:05:48;;;;;;;4.50;1.60;;;;;;;11.71;100.00;96163.63;5012045;28;104743;-61
2023/03/30 03:08:17;;;;;;;5.00;1.60;;;;;;;11.66;100.00;96166.31;5023110;28;105513;-61
2023/03/30 03:10:47;;;;;;;8.30;1.97;;;;;;;11.57;100.00;96167.84;5035062;28;101904;-61
2023/03/30 03:13:58;;;;;;;4.47;1.60;;;;;;;11.51;100.00;96168.88;5031184;28;104728;-61
2023/03/30 03:16:28;;;;;;;6.80;2.20;;;;;;;11.47;100.00;96165.13;5031913;28;101849;-61
2023/03/30 03:19:09;;;;;;;7.17;1.97;;;;;;;11.45;100.00;96162.72;5011679;28;104947;-61
2023/03/30 03:21:36;;;;;;;4.33;1.80;;;;;;;11.46;100.00;96168.88;5010029;28;103730;-61
2023/03/30 03:24:23;;;;;;;4.70;1.93;;;;;;;11.43;100.00;96167.53;5011273;28;102070;-61
2023/03/30 03:27:13;;;;;;;4.27;1.83;;;;;;;11.42;100.00;96178.44;5016837;28;103392;-61
2023/03/30 03:29:59;;;;;;;4.00;1.60;;;;;;;11.38;100.00;96191.47;5029697;28;105454;-61
2023/03/30 03:32:28;;;;;;;3.00;1.80;;;;;;;11.32;100.00;96197.81;5030348;28;102015;-61
2023/03/30 03:35:13;;;;;;;4.27;2.27;;;;;;;11.28;100.00;96193.28;5034695;28;102852;-61
2023/03/30 03:37:40;;;;;;;2.90;1.43;;;;;;;11.21;100.00;96190.84;5020613;27;101900;-61
2023/03/30 03:40:10;;;;;;;3.90;2.23;;;;;;;11.18;100.00;96196.69;5010334;28;105535;-61
2023/03/30 03:42:38;;;;;;;3.10;1.47;;;;;;;11.16;100.00;96192.69;5009716;28;105303;-61
2023/03/30 03:45:11;;;;;;;4.80;2.03;;;;;;;11.12;100.00;96199.59;5010003;28;101892;-61
2023/03/30 03:47:52;;;;;;;6.47;2.03;;;;;;;11.15;100.00;96210.53;5019866;28;105396;-61
2023/03/30 03:50:26;;;;;;;5.73;1.80;;;;;;;11.13;100.00;96211.84;5017567;28;105435;-61
2023/03/30 03:56:20;;;;;;;6.03;1.83;;;;;;;11.09;100.00;96234.69;5009919;28;104852;-61
2023/03/30 03:58:48;;;;;;;9.27;2.07;;;;;;;10.98;100.00;96241.00;5030270;28;102995;-61
2023/03/30 04:01:15;;;;;;;7.93;2.10;;;;;;;10.84;100.00;96247.84;5016145;28;103758;-61
2023/03/30 04:04:20;;;;;;;4.67;2.67;;;;;;;10.76;100.00;96257.09;5009249;28;104411;-61
2023/03/30 04:06:47;;;;;;;4.93;2.33;;;;;;;10.71;100.00;96253.56;5009724;28;101824;-61
2023/03/30 04:09:14;;;;;;;5.40;2.20;;;;;;;10.61;100.00;96266.78;5011087;28;102827;-61
2023/03/30 04:12:16;;;;;;;5.30;2.23;;;;;;;10.56;100.00;96269.41;4948561;28;102679;-61
2023/03/30 04:15:04;;;;;;;5.67;2.30;;;;;;;10.41;100.00;96277.25;5010398;28;104010;-61
2023/03/30 04:17:57;;;;;;;5.17;2.47;;;;;;;10.31;100.00;96269.97;5020963;28;102580;-60
2023/03/30 04:20:41;;;;;;;5.07;3.07;;;;;;;10.23;100.00;96274.94;4970107;28;1439761;-60
2023/03/30 04:23:30;;;;;;;4.90;2.67;;;;;;;10.16;100.00;96263.69;5035684;27;101728;-61
2023/03/30 04:26:17;;;;;;;6.27;2.70;;;;;;;10.06;100.00;96263.59;5029106;28;103461;-61
2023/03/30 04:29:05;;;;;;;4.73;2.47;;;;;;;9.98;100.00;96259.50;4991522;28;102116;-61
2023/03/30 04:31:45;;;;;;;5.97;2.80;;;;;;;9.92;100.00;96251.75;4975374;28;104901;-61
2023/03/30 04:34:42;;;;;;;7.13;2.30;;;;;;;9.84;100.00;96239.69;4993369;28;103232;-61
2023/03/30 04:37:30;;;;;;;3.20;2.23;;;;;;;9.85;100.00;96222.72;5014018;28;101729;-61
2023/03/30 04:40:18;;;;;;;6.00;2.37;;;;;;;9.83;100.00;96216.03;5001382;27;102713;-60
2023/03/30 04:43:21;;;;;;;4.77;2.00;;;;;;;9.77;100.00;96225.00;5008205;28;102472;-61
2023/03/30 04:46:07;;;;;;;10.33;3.30;;;;;;;9.74;100.00;96230.78;5027381;28;101736;-61
2023/03/30 04:49:01;;;;;;;4.43;2.50;;;;;;;9.75;100.00;96237.75;4989769;28;102763;-61
2023/03/30 04:51:47;;;;;;;7.13;2.50;;;;;;;9.71;100.00;96249.91;4988991;28;101821;-60
2023/03/30 04:54:41;;;;;;;6.13;2.20;;;;;;;9.64;100.00;96271.31;4990311;28;105367;-61
2023/03/30 04:57:28;;;;;;;9.17;2.57;;;;;;;9.58;100.00;96287.41;4990351;28;104095;-60
2023/03/30 05:00:22;;;;;;;5.83;2.50;;;;;;;9.67;100.00;96296.56;4991149;28;102950;-61
2023/03/30 05:03:20;;;;;;;6.73;2.63;;;;;;;9.71;100.00;96292.38;4990273;28;105285;-60
2023/03/30 05:06:00;;;;;;;4.67;2.47;;;;;;;9.77;100.00;96286.06;4989579;28;105913;-61
2023/03/30 05:08:40;;;;;;;4.63;2.40;;;;;;;9.75;100.00;96274.91;4990081;28;101755;-60
2023/03/30 05:11:31;;;;;;;5.13;2.90;;;;;;;9.69;100.00;96281.19;4993079;28;102340;-61
2023/03/30 05:14:34;;;;;;;6.83;3.23;;;;;;;9.68;100.00;96295.50;4989878;28;101808;-61
2023/03/30 05:17:19;;;;;;;6.70;3.00;;;;;;;9.55;100.00;96309.16;4988796;28;101952;-61
2023/03/30 05:20:07;;;;;;;6.23;3.03;;;;;;;9.52;100.00;96312.28;4988840;28;105905;-61
2023/03/30 05:23:03;;;;;;;4.30;2.80;;;;;;;9.48;100.00;96316.50;4970311;28;102042;-61
2023/03/30 05:25:54;;;;;;;6.17;2.83;;;;;;;9.50;100.00;96322.38;4980043;28;102776;-61
2023/03/30 05:28:51;;;;;;;6.40;2.80;;;;;;;9.47;100.00;96333.47;4980839;28;103666;-61
2023/03/30 05:31:36;;;;;;;7.87;3.60;;;;;;;9.45;100.00;96335.56;4988083;28;101795;-61
2023/03/30 05:34:35;;;;;;;5.43;2.10;;;;;;;9.47;100.00;96354.69;5008085;28;102780;-61
2023/03/30 05:37:12;;;;;;;5.20;2.50;;;;;;;9.42;100.00;96351.97;5032491;28;104661;-61
2023/03/30 05:39:45;;;;;;;7.63;2.53;;;;;;;9.44;100.00;96355.19;5030955;28;102859;-61
2023/03/30 05:42:38;;;;;;;4.57;2.70;;;;;;;9.41;100.00;96353.84;5028609;28;102424;-61
2023/03/30 05:45:27;;;;;;;4.47;2.30;;;;;;;9.46;100.00;96353.09;5027928;28;102062;-61
2023/03/30 05:48:08;;;;;;;6.60;3.10;;;;;;;9.46;100.00;96355.75;5016130;28;104776;-61
2023/03/30 05:51:04;;;;;;;8.90;3.23;;;;;;;9.47;100.00;96349.38;5004043;28;102978;-61
2023/03/30 05:54:11;;;;;;;5.17;2.80;;;;;;;9.38;100.00;96351.66;5009620;28;101768;-61
2023/03/30 05:56:59;;;;;;;5.00;2.60;;;;;;;9.31;100.00;96342.25;5015489;28;103642;-61
2023/03/30 05:59:37;;;;;;;5.07;2.60;;;;;;;9.31;100.00;96335.09;5025077;28;105867;-61
2023/03/30 06:02:29;;;;;;;5.63;2.80;;;;;;;9.31;100.00;96339.59;5013832;28;101757;-61
2023/03/30 06:05:03;;;;;;;6.23;2.77;;;;;;;9.27;100.00;96338.50;5008695;28;105061;-61
2023/03/30 06:07:30;;;;;;;5.57;2.57;;;;;;;9.28;100.00;96334.78;5012941;28;101970;-61
2023/03/30 06:09:58;;;;;;;7.80;2.90;;;;;;;9.24;100.00;96326.50;5006507;28;105271;-61
2023/03/30 06:12:28;;;;;;;6.00;2.90;;;;;;;9.18;100.00;96334.63;5038678;27;105489;-62
2023/03/30 06:18:44;;;;;;;4.13;2.93;;;;;;;9.15;100.00;96329.78;5018520;28;101923;-61
2023/03/30 06:21:14;;;;;;;7.23;3.20;;;;;;;9.19;100.00;96328.28;5007750;28;105037;-61
2023/03/30 06:24:04;;;;;;;5.73;3.20;;;;;;;9.18;100.00;96331.97;4993365;28;101969;-61
2023/03/30 06:26:33;;;;;;;4.17;3.07;;;;;;;9.24;100.00;96301.81;5012142;28;105303;-61
2023/03/30 06:29:00;;;;;;;6.03;3.30;;;;;;;9.32;100.00;96280.97;5017591;28;102045;-61
2023/03/30 06:31:28;;;;;;;6.73;3.20;;;;;;;9.35;100.00;96266.41;5010336;28;104816;-61
2023/03/30 06:34:13;;;;;;;4.00;2.97;;;;;;;9.46;100.00;96253.03;5008225;28;103888;-61
2023/03/30 06:36:40;;;;;;;4.47;3.17;;;;;;;9.56;100.00;96239.91;5010316;28;101974;-61
2023/03/30 06:39:08;;;;;;;4.37;3.03;;;;;;;9.70;100.00;96232.38;5009578;28;104824;-60
2023/03/30 06:41:35;;;;;;;7.90;3.47;;;;;;;9.84;100.00;96217.63;5008649;28;103971;-61
2023/03/30 06:44:09;;;;;;;7.40;3.80;;;;;;;9.98;100.00;96210.91;5008697;28;101793;-60
2023/03/30 06:46:39;;;;;;;3.87;3.20;;;;;;;10.05;100.00;96195.56;5009936;28;104994;-60
2023/03/30 06:49:06;;;;;;;6.47;3.53;;;;;;;10.15;100.00;96201.00;5022597;28;103937;-60
2023/03/30 06:51:46;;;;;;;7.80;4.43;;;;;;;10.20;100.00;96207.13;5023924;28;102266;-60
2023/03/30 06:54:26;;;;;;;7.37;4.50;;;;;;;10.25;100.00;96209.06;5027985;28;105705;-61
2023/03/30 06:57:00;;;;;;;6.57;4.20;;;;;;;10.25;100.00;96201.09;5020281;28;102004;-59
2023/03/30 07:03:43;;;;;;;6.50;3.70;;;;;;;10.09;100.00;96209.97;4985929;28;102238;-61
2023/03/30 07:06:20;;;;;;;10.73;4.53;;;;;;;9.91;100.00;96202.31;5013288;28;102000;-61
2023/03/30 07:08:48;;;;;;;5.93;3.77;;;;;;;10.03;100.00;96195.00;5024046;28;105336;-61
2023/03/30 07:11:21;;;;;;;7.77;3.83;;;;;;;10.11;100.00;96190.06;5023044;28;105599;-61
2023/03/30 07:13:57;;;;;;;6.23;3.43;;;;;;;10.22;100.00;96182.97;5024058;28;104957;-61
2023/03/30 07:16:24;;;;;;;9.33;3.90;;;;;;;10.32;100.00;96183.88;4991314;28;105651;-61
2023/03/30 07:18:53;;;;;;;6.30;3.37;;;;;;;10.39;100.00;96188.97;5010474;28;102104;-61
2023/03/30 07:21:20;;;;;;;6.73;3.70;;;;;;;10.47;100.00;96196.50;5029499;28;103937;-60
2023/03/30 07:24:04;;;;;;;7.30;3.90;;;;;;;10.49;100.00;96205.81;5019518;28;105437;-60
2023/03/30 07:26:35;;;;;;;7.43;3.63;;;;;;;10.61;100.00;96190.47;4991644;28;101826;-61
2023/03/30 07:29:08;;;;;;;8.83;4.13;;;;;;;10.73;100.00;96171.66;5013249;28;105243;-61
2023/03/30 07:31:38;;;;;;;9.17;6.27;;;;;;;10.77;100.00;96162.94;4990658;28;105230;-61
2023/03/30 07:34:30;;;;;;;14.63;8.67;;;;;;;10.82;100.00;96146.19;5010135;28;102092;-61
2023/03/30 07:36:58;;;;;;;9.27;5.77;;;;;;;10.95;100.00;96129.78;5011885;28;105193;-60
2023/03/30 07:39:30;;;;;;;14.13;8.07;;;;;;;11.00;100.00;96119.97;5013497;28;101932;-61
2023/03/30 07:41:57;;;;;;;10.67;6.93;;;;;;;11.13;100.00;96097.41;5031500;28;105463;-61
2023/03/30 07:45:07;;;;;;;9.63;5.53;;;;;;;11.23;100.00;96081.47;5030101;28;105197;-61
2023/03/30 07:47:34;;;;;;;5.50;4.87;;;;;;;11.39;100.00;96061.81;5028030;28;102143;-60
2023/03/30 07:50:02;;;;;;;6.30;4.13;;;;;;;11.41;100.00;96052.50;5011569;28;105253;-61
2023/03/30 07:52:31;;;;;;;5.40;3.80;;;;;;;11.56;100.00;96041.88;5010287;28;105327;-61
2023/03/30 07:55:06;;;;;;;8.03;4.03;;;;;;;11.64;100.00;96048.56;5013088;28;102060;-61
2023/03/30 07:57:41;;;;;;;8.03;2.40;;;;;;;11.77;100.00;96038.19;5032442;28;105287;-60
2023/03/30 08:00:12;;;;;;;5.80;2.10;;;;;;;11.87;100.00;96032.06;5020223;28;101906;-60
2023/03/30 08:06:43;;;;;;;5.87;4.00;;;;;;;12.37;100.00;96021.38;5008577;28;102218;-64
2023/03/30 08:09:11;;;;;;;5.47;3.10;;;;;;;12.45;100.00;96024.28;5011739;28;101955;-61
2023/03/30 08:11:40;;;;;;;10.97;4.63;;;;;;;12.58;100.00;96022.88;5011000;28;104790;-61
2023/03/30 08:14:18;;;;;;;4.00;2.50;;;;;;;12.65;100.00;96024.19;5024041;28;105228;-61
2023/03/30 08:16:46;;;;;;;5.07;2.10;;;;;;;12.70;100.00;96023.41;5030899;28;101712;-60
2023/03/30 08:19:13;;;;;;;6.30;2.70;;;;;;;13.04;100.00;96000.34;5021855;28;103618;-60
2023/03/30 08:21:40;;;;;;;5.13;2.40;;;;;;;13.01;100.00;95985.66;5031779;28;104174;-62
2023/03/30 08:27:31;;;;;;;7.93;2.93;;;;;;;13.05;100.00;95985.91;5011094;28;105463;-61
2023/03/30 08:29:59;;;;;;;5.23;2.60;;;;;;;12.76;100.00;95982.28;5016059;28;101992;-61
2023/03/30 08:32:26;;;;;;;6.17;3.10;;;;;;;12.88;100.00;95982.78;5019799;27;102249;-62
2023/03/30 08:34:53;;;;;;;4.97;2.10;;;;;;;13.05;100.00;95989.41;5012114;28;104074;-61
2023/03/30 08:37:20;;;;;;;4.73;2.10;;;;;;;13.26;100.00;95988.22;5013048;28;101856;-61
2023/03/30 08:39:47;;;;;;;3.97;2.17;;;;;;;13.18;100.00;95985.28;5010068;28;103564;-61
2023/03/30 08:42:46;;;;;;;6.90;2.70;;;;;;;13.38;100.00;95983.31;5011651;28;104525;-61
2023/03/30 08:45:13;;;;;;;5.27;2.37;;;;;;;13.43;100.00;95971.78;5014845;28;102299;-61
2023/03/30 08:47:43;;;;;;;4.73;2.33;;;;;;;13.63;100.00;95960.97;5020543;28;105811;-61
2023/03/30 08:50:14;;;;;;;10.33;2.13;;;;;;;13.87;100.00;95961.81;5020523;28;102199;-61
2023/03/30 08:52:42;;;;;;;7.53;2.20;;;;;;;14.01;100.00;95952.09;5029512;28;101734;-60
2023/03/30 08:55:27;;;;;;;6.03;1.60;;;;;;;14.31;100.00;95941.09;5028595;28;105333;-62
2023/03/30 08:58:03;;;;;;;5.27;2.07;;;;;;;14.56;100.00;95932.78;5023781;28;101982;-61
2023/03/30 09:00:38;;;;;;;4.63;1.20;;;;;;;14.71;100.00;95943.31;5010278;28;104811;-60
2023/03/30 09:03:38;;;;;;;5.33;1.50;;;;;;;14.85;100.00;95946.88;5029720;28;105265;-61
2023/03/30 09:06:11;;;;;;;3.03;1.30;;;;;;;14.87;100.00;95939.38;5019554;28;102019;-60
2023/03/30 09:08:39;;;;;;;4.40;1.73;;;;;;;14.78;100.00;95938.41;5012839;28;104802;-60
2023/03/30 09:11:12;;;;;;;4.13;1.60;;;;;;;14.90;100.00;95936.09;5013482;28;101849;-60
2023/03/30 09:13:44;;;;;;;5.40;1.70;;;;;;;14.82;100.00;95942.09;5009758;28;105310;-60
2023/03/30 09:16:16;;;;;;;7.17;1.83;;;;;;;14.77;100.00;95932.25;5009394;28;105254;-60
2023/03/30 09:18:44;;;;;;;7.70;1.97;;;;;;;14.72;100.00;95934.19;5009755;28;102161;-61
2023/03/30 09:21:13;;;;;;;6.67;2.00;;;;;;;14.74;100.00;95934.69;5012369;28;102605;-60
2023/03/30 09:24:11;;;;;;;5.63;1.60;;;;;;;14.58;100.00;95939.44;5027163;28;103864;-60
2023/03/30 09:26:46;;;;;;;4.27;1.90;;;;;;;14.46;100.00;95933.72;5024101;28;103399;-61
2023/03/30 09:29:20;;;;;;;4.13;2.00;;;;;;;14.44;100.00;95940.44;5054955;27;104053;-60
2023/03/30 09:31:51;;;;;;;6.63;1.93;;;;;;;14.42;100.00;95937.22;5014613;28;101839;-60
2023/03/30 09:34:31;;;;;;;9.10;1.93;;;;;;;14.42;100.00;95937.22;5009358;28;105429;-60
2023/03/30 09:37:17;;;;;;;5.70;1.73;;;;;;;14.42;100.00;95938.03;5016289;28;105134;-60
2023/03/30 09:39:45;;;;;;;4.70;1.50;;;;;;;14.49;100.00;95946.50;4955441;28;102239;-60
2023/03/30 09:42:24;;;;;;;4.13;1.20;;;;;;;14.57;100.00;95947.75;4987931;28;103037;-61
2023/03/30 09:45:11;;;;;;;3.43;1.33;;;;;;;14.65;100.00;95947.13;4967222;28;104043;-60
2023/03/30 09:47:41;;;;;;;3.80;1.30;;;;;;;14.62;100.00;95964.56;4957657;28;102187;-60
2023/03/30 09:50:10;;;;;;;3.90;1.67;;;;;;;14.71;100.00;95937.97;4969331;28;102309;-60
2023/03/30 09:52:40;;;;;;;8.00;1.93;;;;;;;14.87;100.00;95945.50;4986543;28;102613;-60
2023/03/30 09:55:25;;;;;;;6.00;2.40;;;;;;;14.83;100.00;95944.47;4970027;28;102954;-60
2023/03/30 09:57:53;;;;;;;4.50;2.07;;;;;;;14.85;100.00;95936.16;4937924;28;105290;-61
2023/03/30 10:00:28;;;;;;;6.07;3.17;;;;;;;14.80;100.00;95938.91;4967679;28;102043;-60
2023/03/30 10:03:04;;;;;;;6.60;2.60;;;;;;;14.81;100.00;95943.16;4972057;28;102693;-62
2023/03/30 10:05:32;;;;;;;5.50;1.83;;;;;;;14.74;100.00;95954.25;4978337;28;103103;-62
2023/03/30 10:08:02;;;;;;;6.13;2.00;;;;;;;14.93;100.00;95938.22;4959614;28;102117;-62
2023/03/30 10:10:33;;;;;;;5.67;1.57;;;;;;;15.06;100.00;95926.78;4969404;28;103982;-62
2023/03/30 10:13:28;;;;;;;8.50;1.50;;;;;;;15.27;100.00;95938.81;4987170;28;102107;-62
2023/03/30 10:16:01;;;;;;;5.73;1.60;;;;;;;15.42;100.00;95923.31;4955453;28;101943;-62
2023/03/30 10:18:35;;;;;;;5.77;1.83;;;;;;;15.72;100.00;95930.06;5005438;28;102611;-62
2023/03/30 10:21:04;;;;;;;9.73;1.60;;;;;;;16.03;100.00;95936.53;5019318;28;101816;-62
2023/03/30 10:23:33;;;;;;;3.70;1.37;;;;;;;16.11;100.00;95927.78;5026772;27;102827;-62
2023/03/30 10:26:04;;;;;;;4.53;1.70;;;;;;;16.03;100.00;95917.75;5012117;28;104310;-61
2023/03/30 10:28:34;;;;;;;3.70;1.57;;;;;;;15.89;100.00;95920.41;5010070;28;101858;-61
2023/03/30 10:31:07;;;;;;;8.13;1.50;;;;;;;16.08;100.00;95914.97;5010680;28;103870;-62
2023/03/30 10:33:56;;;;;;;3.87;1.40;;;;;;;16.28;100.00;95911.91;5021457;28;103824;-61
2023/03/30 10:36:28;;;;;;;5.27;1.70;;;;;;;16.54;100.00;95911.16;5019609;28;102336;-61
2023/03/30 10:38:57;;;;;;;7.70;1.83;;;;;;;16.53;100.00;95906.09;5011050;28;105664;-61
2023/03/30 10:41:24;;;;;;;5.53;1.77;;;;;;;16.58;100.00;95908.66;5003716;28;102062;-61
2023/03/30 10:47:38;;;;;;;5.63;1.77;;;;;;;16.76;100.00;95915.81;5008623;28;104168;-61
2023/03/30 10:50:19;;;;;;;5.07;2.07;;;;;;;16.74;100.00;95909.94;5012014;28;102065;-61
2023/03/30 10:53:16;;;;;;;4.77;1.90;;;;;;;16.78;100.00;95910.94;5013610;28;102774;-61
2023/03/30 10:55:51;;;;;;;5.47;1.67;;;;;;;17.07;100.00;95919.44;5012521;28;105681;-61
2023/03/30 10:58:33;;;;;;;9.80;1.67;;;;;;;17.39;100.00;95921.97;5012290;28;101873;-61
2023/03/30 11:01:09;;;;;;;4.00;1.40;;;;;;;17.50;100.00;95926.78;5010557;28;105148;-61
2023/03/30 11:03:57;;;;;;;5.60;1.80;;;;;;;17.74;100.00;95913.84;5015843;28;104211;-61
2023/03/30 11:06:27;;;;;;;9.33;1.70;;;;;;;17.79;100.00;95921.81;5011981;28;105571;-61
2023/03/30 11:08:58;;;;;;;5.90;1.33;;;;;;;17.84;100.00;95915.50;5012684;28;103108;-61
2023/03/30 11:11:32;;;;;;;6.53;2.00;;;;;;;18.03;100.00;95922.25;5011806;28;102037;-61
2023/03/30 11:14:22;;;;;;;4.47;1.67;;;;;;;17.94;100.00;95923.31;5058569;27;104761;-61
2023/03/30 11:16:53;;;;;;;9.23;1.90;;;;;;;17.85;100.00;95930.53;5044817;27;104376;-61
2023/03/30 11:19:25;;;;;;;6.20;2.50;;;;;;;17.70;100.00;95928.19;5008987;28;102000;-61
2023/03/30 11:21:58;;;;;;;9.67;2.20;;;;;;;17.55;100.00;95925.91;5024336;28;105707;-61
2023/03/30 11:25:14;;;;;;;6.80;1.87;;;;;;;17.73;100.00;95932.97;5022637;28;105431;-61
2023/03/30 11:27:48;;;;;;;4.57;1.70;;;;;;;17.50;100.00;95934.09;5015286;28;101753;-61
2023/03/30 11:30:20;;;;;;;6.93;1.80;;;;;;;17.36;100.00;95938.66;5013491;28;105775;-61
2023/03/30 11:33:19;;;;;;;8.03;1.93;;;;;;;17.20;100.00;95940.09;5011455;28;101893;-61
2023/03/30 11:35:48;;;;;;;6.03;1.57;;;;;;;17.12;100.00;95943.50;5052197;27;105656;-61
2023/03/30 11:38:19;;;;;;;4.03;1.40;;;;;;;17.02;100.00;95949.09;5030656;28;105461;-60
2023/03/30 11:40:48;;;;;;;10.13;2.37;;;;;;;16.80;100.00;95959.78;5012326;28;101923;-61
2023/03/30 11:43:17;;;;;;;3.40;1.90;;;;;;;16.59;100.00;95969.31;5011841;28;104607;-60
2023/03/30 11:45:55;;;;;;;6.27;1.80;;;;;;;16.44;100.00;95981.13;5026593;28;104108;-61
2023/03/30 11:48:59;;;;;;;6.97;1.80;;;;;;;16.47;100.00;95982.44;5033051;28;102188;-61
2023/03/30 11:51:39;;;;;;;7.37;2.33;;;;;;;16.31;100.00;95994.50;5005246;28;106183;-60
2023/03/30 11:54:58;;;;;;;8.00;2.30;;;;;;;16.26;100.00;95989.22;5031345;28;101812;-60
2023/03/30 11:57:33;;;;;;;9.10;2.77;;;;;;;16.22;100.00;96007.00;5046652;27;104936;-61
2023/03/30 12:00:16;;;;;;;9.37;3.37;;;;;;;16.19;100.00;96021.00;5033023;27;105372;-61
2023/03/30 12:02:51;;;;;;;9.83;3.30;;;;;;;16.16;100.00;96021.59;5014398;28;102007;-63
2023/03/30 12:05:27;;;;;;;10.10;2.47;;;;;;;16.13;100.00;96019.50;5010876;28;105358;-60
2023/03/30 12:08:08;;;;;;;11.87;3.17;;;;;;;16.06;100.00;96017.19;5010432;28;104249;-61
2023/03/30 12:10:39;;;;;;;12.67;3.10;;;;;;;15.92;100.00;96031.66;5010963;28;101836;-60
2023/03/30 12:13:50;;;;;;;10.03;2.70;;;;;;;15.76;100.00;96054.41;5013596;28;105513;-62
2023/03/30 12:16:22;;;;;;;9.57;2.90;;;;;;;15.53;100.00;96060.66;5017661;28;102377;-62
2023/03/30 12:18:58;;;;;;;6.70;2.83;;;;;;;15.29;100.00;96066.00;5029106;28;104008;-63
2023/03/30 12:21:32;;;;;;;10.90;2.87;;;;;;;15.18;100.00;96077.13;5017556;28;105764;-61
2023/03/30 12:24:25;;;;;;;8.57;2.60;;;;;;;15.09;100.00;96076.19;5031601;27;101938;-61
2023/03/30 12:26:52;;;;;;;7.90;2.57;;;;;;;15.04;100.00;96074.34;5019531;28;105246;-61
2023/03/30 12:29:20;;;;;;;10.87;2.87;;;;;;;14.85;100.00;96088.75;5009973;28;103949;-63
2023/03/30 12:32:18;;;;;;;10.53;3.07;;;;;;;14.57;100.00;96089.59;5010720;28;101927;-61
2023/03/30 12:34:48;;;;;;;4.60;1.87;;;;;;;14.28;100.00;96086.88;5010841;28;104816;-63
2023/03/30 12:37:18;;;;;;;9.50;4.30;;;;;;;14.05;100.00;96100.13;5013395;28;105040;-64
2023/03/30 12:39:53;;;;;;;12.13;4.67;;;;;;;13.93;100.00;96121.09;5010359;28;105349;-65
2023/03/30 12:42:26;;;;;;;9.37;4.67;;;;;;;13.74;100.00;96112.13;5009896;28;105460;-60
2023/03/30 12:45:47;;;;;;;5.20;3.03;;;;;;;13.53;100.00;96129.34;5029505;28;101848;-61